Guanacaste Airport


Codes: MRNC/NCT
Name: Guanacaste Airport
City: Nicoya/Guanacate
Country: Costa Rica
Elevation: 365 ft.

Photos at Guanacaste Airport


   Photos courtesy of SpottingLog. You can add your own sightings and photos by signing up for a free trial today.



No photos found.

Weather at Guanacaste Airport


Time (UTC)DescriptionTempratureWindCloud coverageVisibilityPressureHumidity
13-Jun-2024 03:00Light Rain25°C2 mph, NE100%6540m1011hPa96%
13-Jun-2024 06:00Moderate Rain25°C2 mph, S100%10000m1011hPa95%
13-Jun-2024 09:00Light Rain24°C0 mph, W100%10000m1010hPa96%
13-Jun-2024 12:00Overcast Clouds24°C2 mph, W100%10000m1011hPa96%
13-Jun-2024 15:00Light Rain28°C2 mph, NW98%10000m1012hPa81%
13-Jun-2024 18:00Moderate Rain29°C2 mph, W95%10000m1011hPa80%
13-Jun-2024 21:00Moderate Rain27°C4 mph, W100%10000m1010hPa87%
14-Jun-2024 00:00Moderate Rain24°C2 mph, SW100%3805m1010hPa98%
14-Jun-2024 03:00Heavy Intensity Rain24°C2 mph, S100%579m1011hPa100%
14-Jun-2024 06:00Heavy Intensity Rain24°C2 mph, SE100%10m1010hPa99%
14-Jun-2024 09:00Very Heavy Rain24°C2 mph, SE100%1982m1009hPa99%
14-Jun-2024 12:00Moderate Rain23°C2 mph, E100%4902m1010hPa99%
14-Jun-2024 15:00Moderate Rain24°C0 mph, W100%8960m1011hPa99%
14-Jun-2024 18:00Moderate Rain24°C2 mph, W100%6300m1010hPa98%
14-Jun-2024 21:00Heavy Intensity Rain24°C7 mph, NW100%4533m1008hPa97%
15-Jun-2024 00:00Moderate Rain24°C4 mph, W100%4902m1009hPa97%
15-Jun-2024 03:00Moderate Rain24°C2 mph, SW100%675m1010hPa99%
15-Jun-2024 06:00Heavy Intensity Rain24°C2 mph, SW100%1739m1010hPa99%
15-Jun-2024 09:00Moderate Rain24°C2 mph, SW100%2764m1008hPa97%
15-Jun-2024 12:00Heavy Intensity Rain24°C2 mph, W100%1412m1009hPa99%
15-Jun-2024 15:00Very Heavy Rain23°C2 mph, S100%181m1009hPa100%
15-Jun-2024 18:00Heavy Intensity Rain24°C2 mph, SW100%1413m1009hPa99%
15-Jun-2024 21:00Heavy Intensity Rain23°C2 mph, S100%2499m1008hPa99%
16-Jun-2024 00:00Heavy Intensity Rain23°C2 mph, SE100%6478m1010hPa99%
16-Jun-2024 03:00Moderate Rain23°C2 mph, S100%2661m1011hPa99%
16-Jun-2024 06:00Heavy Intensity Rain23°C2 mph, SW100%2768m1010hPa99%
16-Jun-2024 09:00Heavy Intensity Rain23°C2 mph, S100%2181m1009hPa100%
16-Jun-2024 12:00Moderate Rain23°C2 mph, SW100%1122m1010hPa100%
16-Jun-2024 15:00Moderate Rain23°C2 mph, SW100%8177m1012hPa98%
16-Jun-2024 18:00Moderate Rain24°C4 mph, SW100%10000m1012hPa97%
16-Jun-2024 21:00Light Rain24°C4 mph, S100%10000m1010hPa97%
17-Jun-2024 00:00Light Rain23°C4 mph, S100%10000m1011hPa98%
17-Jun-2024 03:00Light Rain23°C2 mph, S100%10000m1012hPa98%
17-Jun-2024 06:00Light Rain23°C4 mph, S100%10000m1012hPa97%
17-Jun-2024 09:00Overcast Clouds23°C2 mph, S100%10000m1010hPa97%
17-Jun-2024 12:00Light Rain23°C2 mph, SE100%10000m1011hPa96%
17-Jun-2024 15:00Light Rain25°C2 mph, S100%10000m1012hPa89%
17-Jun-2024 18:00Light Rain27°C2 mph, SW100%10000m1011hPa82%
17-Jun-2024 21:00Light Rain27°C2 mph, S100%10000m1009hPa85%
18-Jun-2024 00:00Light Rain24°C2 mph, W100%10000m1010hPa93%